Time;durP1;ratioP1;P1;durP2;ratioP2;P2;SDS_P1;SDS_P2;PMS_P1;PMS_P2;Temp;Humidity;BMP_temperature;BMP_pressure;BME280_temperature;BME280_humidity;BME280_pressure;Samples;Min_cycle;Max_cycle;Signal;HPM_P1;HPM_P2
2023/12/20 00:00:57;;;;;;;20.63;5.88;;;;;;;5.78;100.00;101482.44;4877997;29;20040;-68
2023/12/20 00:03:23;;;;;;;19.55;4.90;;;;;;;5.73;100.00;101482.66;4897439;29;20598;-67
2023/12/20 00:05:49;;;;;;;15.13;4.35;;;;;;;5.72;100.00;101480.91;4903651;29;20028;-67
2023/12/20 00:08:14;;;;;;;19.67;4.47;;;;;;;5.70;100.00;101489.91;4895830;29;20063;-68
2023/12/20 00:10:39;;;;;;;18.95;4.25;;;;;;;5.67;100.00;101487.38;4905222;29;20036;-81
2023/12/20 00:13:05;;;;;;;16.10;4.53;;;;;;;5.65;100.00;101492.78;4893154;29;20172;-80
2023/12/20 00:15:30;;;;;;;17.05;3.90;;;;;;;5.63;100.00;101486.63;4882042;29;20021;-82
2023/12/20 00:17:55;;;;;;;22.27;4.50;;;;;;;5.60;100.00;101492.97;4897214;29;20024;-82
2023/12/20 00:20:20;;;;;;;21.63;4.93;;;;;;;5.57;100.00;101495.75;4899043;29;20064;-82
2023/12/20 00:22:46;;;;;;;15.43;3.95;;;;;;;5.54;100.00;101498.56;4883404;29;20095;-79
2023/12/20 00:25:11;;;;;;;20.65;4.70;;;;;;;5.54;100.00;101495.88;4893476;29;20124;-82
2023/12/20 00:27:36;;;;;;;20.52;4.35;;;;;;;5.54;100.00;101495.88;4900323;29;20056;-81
2023/12/20 00:30:02;;;;;;;18.65;4.03;;;;;;;5.53;100.00;101486.16;4898554;29;20457;-82
2023/12/20 00:32:27;;;;;;;19.65;3.90;;;;;;;5.49;100.00;101489.91;4895808;29;20032;-81
2023/12/20 00:34:52;;;;;;;19.73;4.45;;;;;;;5.49;100.00;101489.91;4897491;29;20096;-82
2023/12/20 00:37:17;;;;;;;23.08;4.32;;;;;;;5.46;100.00;101483.81;4878396;29;20044;-81
2023/12/20 00:39:43;;;;;;;25.65;5.47;;;;;;;5.43;100.00;101479.47;4888769;29;20484;-79
2023/12/20 00:42:09;;;;;;;16.70;4.20;;;;;;;5.42;100.00;101481.28;4903117;29;20043;-80
2023/12/20 00:44:34;;;;;;;17.38;4.00;;;;;;;5.41;100.00;101479.53;4901191;29;20038;-82
2023/12/20 00:46:59;;;;;;;15.55;3.67;;;;;;;5.39;100.00;101483.22;4897423;29;20029;-80
2023/12/20 00:49:24;;;;;;;14.85;3.50;;;;;;;5.38;100.00;101477.00;4899515;29;20036;-81
2023/12/20 00:51:52;;;;;;;16.58;3.58;;;;;;;5.34;100.00;101475.38;4878725;29;20112;-80
2023/12/20 00:54:17;;;;;;;21.08;4.07;;;;;;;5.36;100.00;101473.53;4879787;29;20032;-81
2023/12/20 00:56:42;;;;;;;13.77;3.35;;;;;;;5.36;100.00;101477.97;4899673;29;20500;-80
2023/12/20 00:59:08;;;;;;;17.08;3.83;;;;;;;5.34;100.00;101469.19;4881263;29;20080;-82
2023/12/20 01:01:33;;;;;;;16.02;3.58;;;;;;;5.34;100.00;101471.84;4896098;29;20036;-81
2023/12/20 01:03:58;;;;;;;10.10;3.05;;;;;;;5.34;100.00;101472.72;4880086;29;20025;-79
2023/12/20 01:06:24;;;;;;;16.05;3.47;;;;;;;5.33;100.00;101472.78;4894713;29;20470;-82
2023/12/20 01:08:49;;;;;;;18.77;4.03;;;;;;;5.32;100.00;101471.06;4876617;29;20060;-82
2023/12/20 01:11:14;;;;;;;24.52;4.15;;;;;;;5.35;100.00;101468.28;4896785;29;20064;-82
2023/12/20 01:13:40;;;;;;;13.38;3.25;;;;;;;5.33;100.00;101470.13;4885408;29;20039;-81
2023/12/20 01:16:05;;;;;;;18.05;3.35;;;;;;;5.34;100.00;101474.53;4898492;29;20024;-81
2023/12/20 01:18:31;;;;;;;18.60;3.80;;;;;;;5.34;100.00;101479.84;4878905;29;20034;-80
2023/12/20 01:21:00;;;;;;;18.13;3.40;;;;;;;5.33;100.00;101483.44;4898570;29;20075;-79
2023/12/20 01:23:26;;;;;;;18.88;3.40;;;;;;;5.34;100.00;101474.53;4892757;29;20036;-78
2023/12/20 01:25:51;;;;;;;18.13;4.10;;;;;;;5.33;100.00;101480.78;4897792;29;20398;-82
2023/12/20 01:28:17;;;;;;;13.02;3.20;;;;;;;5.35;100.00;101484.25;4900398;29;20028;-82
2023/12/20 01:30:42;;;;;;;17.13;3.85;;;;;;;5.33;100.00;101487.00;4879423;29;20037;-82
2023/12/20 01:33:07;;;;;;;16.38;3.60;;;;;;;5.35;100.00;101486.94;4897667;29;20402;-77
2023/12/20 01:35:33;;;;;;;18.88;4.07;;;;;;;5.35;100.00;101493.13;4894132;29;20069;-78
2023/12/20 01:37:58;;;;;;;16.00;3.25;;;;;;;5.31;100.00;101487.97;4894409;29;20581;-81
2023/12/20 01:40:23;;;;;;;21.77;4.20;;;;;;;5.33;100.00;101502.09;4899152;29;20024;-82
2023/12/20 01:43:12;;;;;;;16.33;4.47;;;;;;;5.33;100.00;101494.09;4899113;29;20078;-77
2023/12/20 01:45:37;;;;;;;16.90;4.32;;;;;;;5.32;100.00;101485.25;4897380;29;20033;-78
2023/12/20 01:48:05;;;;;;;18.77;3.88;;;;;;;5.33;100.00;101483.44;4894671;29;20032;-82
2023/12/20 01:50:31;;;;;;;16.67;3.85;;;;;;;5.30;100.00;101486.22;4880723;29;20028;-81
2023/12/20 01:52:59;;;;;;;22.15;4.32;;;;;;;5.29;100.00;101487.19;4895285;29;20035;-82
2023/12/20 01:55:27;;;;;;;17.85;4.25;;;;;;;5.27;100.00;101483.69;4895025;29;20021;-82
2023/12/20 01:57:52;;;;;;;24.90;4.80;;;;;;;5.24;100.00;101484.69;4881532;29;20052;-81
2023/12/20 02:00:18;;;;;;;14.70;3.85;;;;;;;5.22;100.00;101482.09;4897268;29;22106;-79
2023/12/20 02:02:45;;;;;;;18.52;3.20;;;;;;;5.18;100.00;101485.84;4880926;29;20024;-79
2023/12/20 02:05:11;;;;;;;17.90;4.07;;;;;;;5.16;100.00;101477.00;4896119;29;20028;-81
2023/12/20 02:07:36;;;;;;;15.70;3.53;;;;;;;5.17;100.00;101481.41;4898897;29;20115;-81
2023/12/20 02:10:03;;;;;;;17.48;3.83;;;;;;;5.15;100.00;101479.75;4920954;24;20179;-80
2023/12/20 02:12:29;;;;;;;21.75;4.88;;;;;;;5.15;100.00;101483.25;4880308;29;20013;-80
2023/12/20 02:14:54;;;;;;;19.17;5.07;;;;;;;5.18;100.00;101482.28;4876371;29;20041;-79
2023/12/20 02:17:20;;;;;;;18.95;4.20;;;;;;;5.17;100.00;101486.75;5234757;24;20032;-79
2023/12/20 02:19:46;;;;;;;17.98;4.55;;;;;;;5.18;100.00;101484.94;4936813;29;20016;-79
2023/12/20 02:22:11;;;;;;;18.65;3.70;;;;;;;5.19;100.00;101498.19;4919533;29;20079;-79
2023/12/20 02:24:37;;;;;;;18.50;4.05;;;;;;;5.20;100.00;101481.28;4932330;29;20032;-79
2023/12/20 02:27:03;;;;;;;16.67;4.28;;;;;;;5.17;100.00;101486.75;4935122;29;20245;-79
2023/12/20 02:29:28;;;;;;;14.43;3.85;;;;;;;5.15;100.00;101491.25;4911684;29;20100;-79
2023/12/20 02:31:53;;;;;;;20.35;3.90;;;;;;;5.15;100.00;101477.94;4921438;29;20050;-79
2023/12/20 02:34:19;;;;;;;17.73;3.95;;;;;;;5.15;100.00;101480.59;4933022;29;20039;-79
2023/12/20 02:36:44;;;;;;;16.42;4.38;;;;;;;5.14;100.00;101478.88;4937517;29;20036;-78
2023/12/20 02:39:09;;;;;;;20.90;4.78;;;;;;;5.12;100.00;101475.41;4915325;29;20052;-79
2023/12/20 02:41:35;;;;;;;13.88;3.53;;;;;;;5.11;100.00;101483.44;4935062;29;20043;-79
2023/12/20 02:44:02;;;;;;;20.30;4.63;;;;;;;5.10;100.00;101485.25;4924336;29;20028;-79
2023/12/20 02:46:27;;;;;;;18.55;3.90;;;;;;;5.11;100.00;101483.44;4946116;29;20039;-78
2023/12/20 02:48:52;;;;;;;18.92;4.43;;;;;;;5.11;100.00;101479.00;4937148;29;20016;-80
2023/12/20 02:51:17;;;;;;;16.65;3.80;;;;;;;5.12;100.00;101479.88;4936210;29;20036;-79
2023/12/20 02:53:43;;;;;;;28.10;4.45;;;;;;;5.15;100.00;101477.06;4938920;29;20032;-79
2023/12/20 02:56:08;;;;;;;20.48;4.65;;;;;;;5.17;100.00;101476.09;4928256;29;20031;-79
2023/12/20 02:58:33;;;;;;;20.08;4.50;;;;;;;5.17;100.00;101480.53;4928190;29;20019;-79
2023/12/20 03:00:59;;;;;;;15.68;3.95;;;;;;;5.17;100.00;101477.88;4928310;29;20036;-79
2023/12/20 03:03:25;;;;;;;14.13;4.53;;;;;;;5.17;100.00;101475.19;4945025;29;20020;-79
2023/12/20 03:05:50;;;;;;;18.30;4.47;;;;;;;5.16;100.00;101470.81;4942996;29;20080;-79
2023/12/20 03:08:15;;;;;;;20.30;4.70;;;;;;;5.15;100.00;101469.94;4930647;29;20023;-79
2023/12/20 03:10:41;;;;;;;16.02;3.67;;;;;;;5.16;100.00;101462.84;4941765;29;20027;-79
2023/12/20 03:13:07;;;;;;;17.27;3.92;;;;;;;5.12;100.00;101475.41;4918332;29;20024;-81
2023/12/20 03:15:33;;;;;;;24.48;4.88;;;;;;;5.11;100.00;101468.34;4906908;29;20114;-82
2023/12/20 03:17:59;;;;;;;18.58;4.75;;;;;;;5.10;100.00;101465.75;4912215;29;20127;-81
2023/12/20 03:20:26;;;;;;;20.77;4.32;;;;;;;5.08;100.00;101464.00;4877542;29;20036;-82
2023/12/20 03:22:51;;;;;;;22.73;4.40;;;;;;;5.08;100.00;101466.69;4879259;29;20051;-82
2023/12/20 03:25:16;;;;;;;22.42;4.40;;;;;;;5.10;100.00;101460.44;4905513;29;20024;-79
2023/12/20 03:27:42;;;;;;;16.60;4.53;;;;;;;5.07;100.00;101462.25;4925496;29;20088;-79
2023/12/20 03:30:07;;;;;;;18.08;4.53;;;;;;;5.07;100.00;101445.41;4922025;29;20067;-79
2023/12/20 03:32:33;;;;;;;17.17;4.15;;;;;;;5.06;100.00;101455.19;4902118;29;20024;-79
2023/12/20 03:34:58;;;;;;;18.08;5.10;;;;;;;5.09;100.00;101448.88;4919588;29;20041;-78
2023/12/20 03:37:23;;;;;;;20.95;4.82;;;;;;;5.12;100.00;101448.75;4922510;29;20024;-79
2023/12/20 03:39:49;;;;;;;19.38;4.82;;;;;;;5.16;100.00;101450.38;4906993;29;20024;-77
2023/12/20 03:42:14;;;;;;;18.58;4.93;;;;;;;5.19;100.00;101441.38;4902798;29;20029;-78
2023/12/20 03:44:42;;;;;;;21.63;4.75;;;;;;;5.20;100.00;101436.00;4924044;29;20055;-79
2023/12/20 03:47:08;;;;;;;19.27;4.57;;;;;;;5.24;100.00;101440.28;4911613;29;20273;-79
2023/12/20 03:49:33;;;;;;;22.73;4.78;;;;;;;5.25;100.00;101441.97;4925078;29;20072;-79
2023/12/20 03:51:58;;;;;;;19.52;4.95;;;;;;;5.29;100.00;101439.22;4928583;29;20096;-78
2023/12/20 03:54:24;;;;;;;27.52;4.75;;;;;;;5.29;100.00;101444.53;4926572;29;20016;-79
2023/12/20 03:56:50;;;;;;;20.38;5.07;;;;;;;5.29;100.00;101453.41;4926808;29;20060;-78
2023/12/20 03:59:15;;;;;;;18.33;4.60;;;;;;;5.32;100.00;101455.94;4922774;29;20028;-79
2023/12/20 04:01:44;;;;;;;22.25;5.35;;;;;;;5.35;100.00;101458.47;4925400;29;20036;-79
2023/12/20 04:04:10;;;;;;;19.17;5.07;;;;;;;5.38;100.00;101458.34;4911832;29;20020;-79
2023/12/20 04:06:36;;;;;;;23.70;5.32;;;;;;;5.41;100.00;101452.00;4906111;29;20063;-77
2023/12/20 04:09:01;;;;;;;19.85;4.47;;;;;;;5.43;100.00;101444.81;4908377;29;20047;-78
2023/12/20 04:11:26;;;;;;;17.85;4.60;;;;;;;5.47;100.00;101451.75;4932408;29;20083;-79
2023/12/20 04:13:51;;;;;;;20.42;5.40;;;;;;;5.49;100.00;101449.91;4919202;29;20024;-79
2023/12/20 04:16:17;;;;;;;25.40;5.93;;;;;;;5.52;100.00;101447.09;4908376;29;20347;-79
2023/12/20 04:18:42;;;;;;;25.85;6.15;;;;;;;5.54;100.00;101453.22;4918794;29;20068;-78
2023/12/20 04:21:07;;;;;;;15.93;5.20;;;;;;;5.56;100.00;101458.50;4920338;29;20039;-79
2023/12/20 04:23:33;;;;;;;19.40;4.90;;;;;;;5.56;100.00;101453.16;4905461;29;20028;-79
2023/12/20 04:25:58;;;;;;;20.60;5.78;;;;;;;5.60;100.00;101444.09;4925005;29;20092;-79
2023/12/20 04:28:23;;;;;;;17.73;5.07;;;;;;;5.60;100.00;101446.78;4907958;29;20112;-79
2023/12/20 04:30:49;;;;;;;20.38;5.93;;;;;;;5.63;100.00;101449.31;4907272;29;20036;-79
2023/12/20 04:33:14;;;;;;;17.85;4.90;;;;;;;5.64;100.00;101450.16;4920961;29;20032;-78
2023/12/20 04:35:40;;;;;;;23.98;5.05;;;;;;;5.67;100.00;101450.06;4904604;29;20048;-79
2023/12/20 04:38:06;;;;;;;23.58;5.65;;;;;;;5.67;100.00;101455.38;4906691;29;20036;-79
2023/12/20 04:40:31;;;;;;;20.92;4.93;;;;;;;5.68;100.00;101447.31;4900813;29;20065;-79
2023/12/20 04:42:57;;;;;;;18.02;4.30;;;;;;;5.70;100.00;101455.25;4929564;29;20047;-80
2023/12/20 04:45:24;;;;;;;21.20;4.57;;;;;;;5.71;100.00;101452.50;4907449;29;20036;-81
2023/12/20 04:47:50;;;;;;;15.05;4.35;;;;;;;5.70;100.00;101445.44;4880095;29;20100;-80
2023/12/20 04:50:15;;;;;;;18.60;4.18;;;;;;;5.71;100.00;101451.63;4900939;29;20032;-80
2023/12/20 04:52:41;;;;;;;24.45;5.10;;;;;;;5.73;100.00;101461.31;4883621;29;20477;-80
2023/12/20 04:55:06;;;;;;;25.02;5.45;;;;;;;5.73;100.00;101452.44;4888671;29;20016;-80
2023/12/20 04:57:32;;;;;;;17.48;4.50;;;;;;;5.75;100.00;101469.25;4898228;29;20104;-79
2023/12/20 04:59:57;;;;;;;22.15;5.22;;;;;;;5.76;100.00;101457.66;4882210;29;20637;-81
2023/12/20 05:02:23;;;;;;;20.77;4.50;;;;;;;5.75;100.00;101453.22;4899746;29;20037;-80
2023/12/20 05:04:48;;;;;;;26.50;5.05;;;;;;;5.73;100.00;101437.31;4901232;29;20039;-80
2023/12/20 05:07:13;;;;;;;21.27;5.90;;;;;;;5.74;100.00;101438.16;4907532;29;20435;-80
2023/12/20 05:09:39;;;;;;;15.75;4.38;;;;;;;5.74;100.00;101439.03;4883872;29;20020;-80
2023/12/20 05:12:05;;;;;;;19.55;4.65;;;;;;;5.73;100.00;101447.13;4882644;29;20306;-80
2023/12/20 05:14:30;;;;;;;21.20;5.07;;;;;;;5.75;100.00;101434.56;4895015;29;20081;-80
2023/12/20 05:16:56;;;;;;;24.45;5.25;;;;;;;5.76;100.00;101428.31;4880005;29;20048;-80
2023/12/20 05:19:22;;;;;;;22.90;5.57;;;;;;;5.76;100.00;101425.63;4900438;29;20044;-80
2023/12/20 05:21:47;;;;;;;21.20;5.18;;;;;;;5.76;100.00;101428.31;4883909;29;20148;-80
2023/12/20 05:24:12;;;;;;;19.25;4.65;;;;;;;5.78;100.00;101429.09;4903077;29;20020;-80
2023/12/20 05:26:38;;;;;;;16.70;4.07;;;;;;;5.78;100.00;101431.75;4900160;29;20059;-80
2023/12/20 05:29:03;;;;;;;22.23;5.10;;;;;;;5.79;100.00;101430.84;4901165;29;20148;-80
2023/12/20 05:31:28;;;;;;;23.90;4.93;;;;;;;5.79;100.00;101438.84;4886180;29;20052;-80
2023/12/20 05:33:53;;;;;;;22.05;5.40;;;;;;;5.78;100.00;101437.97;4884476;29;20071;-80
2023/12/20 05:36:19;;;;;;;21.55;4.65;;;;;;;5.78;100.00;101437.97;4900934;29;20020;-80
2023/12/20 05:38:45;;;;;;;20.45;5.20;;;;;;;5.80;100.00;101445.91;4883638;29;20372;-80
2023/12/20 05:41:10;;;;;;;19.08;4.63;;;;;;;5.79;100.00;101438.84;4882170;29;20088;-80
2023/12/20 05:43:35;;;;;;;21.40;4.88;;;;;;;5.77;100.00;101430.91;4877908;29;20065;-80
2023/12/20 05:46:00;;;;;;;15.43;4.22;;;;;;;5.74;100.00;101435.50;4903409;29;20145;-81
2023/12/20 05:48:29;;;;;;;23.15;5.25;;;;;;;5.72;100.00;101440.88;4894508;29;20037;-80
2023/12/20 05:50:54;;;;;;;20.83;5.10;;;;;;;5.67;100.00;101455.38;4897929;29;20144;-80
2023/12/20 05:53:19;;;;;;;19.08;4.80;;;;;;;5.64;100.00;101450.16;4899824;29;20032;-80
2023/12/20 05:55:45;;;;;;;21.25;5.30;;;;;;;5.58;100.00;101448.66;4900724;29;20068;-80
2023/12/20 05:58:10;;;;;;;24.13;4.45;;;;;;;5.55;100.00;101443.41;4886583;29;20028;-80
2023/12/20 06:00:35;;;;;;;21.42;5.43;;;;;;;5.53;100.00;101447.97;4880129;29;20068;-80
2023/12/20 06:03:01;;;;;;;19.00;4.80;;;;;;;5.50;100.00;101448.09;4885632;29;20040;-80
2023/12/20 06:05:26;;;;;;;20.90;4.32;;;;;;;5.44;100.00;101459.88;4907336;29;20028;-80
2023/12/20 06:07:52;;;;;;;28.98;5.50;;;;;;;5.40;100.00;101466.25;4882470;29;20083;-80
2023/12/20 06:10:17;;;;;;;19.75;5.40;;;;;;;5.38;100.00;101468.13;4880941;29;20411;-80
2023/12/20 06:12:43;;;;;;;22.40;5.00;;;;;;;5.36;100.00;101464.66;4897386;29;20056;-79
2023/12/20 06:15:08;;;;;;;19.05;4.95;;;;;;;5.35;100.00;101466.47;4891728;29;20021;-80
2023/12/20 06:17:34;;;;;;;20.73;5.43;;;;;;;5.34;100.00;101461.19;4887881;29;20048;-79
2023/12/20 06:20:00;;;;;;;21.90;5.22;;;;;;;5.34;100.00;101458.53;4880994;29;20522;-80
2023/12/20 06:22:25;;;;;;;22.15;5.82;;;;;;;5.33;100.00;101456.78;4891429;29;20036;-80
2023/12/20 06:24:51;;;;;;;22.08;4.88;;;;;;;5.30;100.00;101463.13;4875041;29;20036;-80
2023/12/20 06:27:16;;;;;;;24.50;5.07;;;;;;;5.28;100.00;101458.78;4884136;29;20488;-80
2023/12/20 06:29:44;;;;;;;19.52;5.55;;;;;;;5.27;100.00;101463.25;4886485;29;20511;-80
2023/12/20 06:32:09;;;;;;;20.38;5.88;;;;;;;5.25;100.00;101465.97;4900460;29;20028;-80
2023/12/20 06:34:35;;;;;;;23.35;5.55;;;;;;;5.22;100.00;101455.44;4899781;29;20059;-80
2023/12/20 06:37:00;;;;;;;18.80;5.20;;;;;;;5.20;100.00;101459.13;4889976;29;20496;-80
2023/12/20 06:39:25;;;;;;;24.60;6.25;;;;;;;5.18;100.00;101452.97;4896022;29;20033;-80
2023/12/20 06:41:51;;;;;;;24.42;5.90;;;;;;;5.17;100.00;101454.78;4906363;29;20024;-80
2023/12/20 06:44:16;;;;;;;31.02;7.97;;;;;;;5.16;100.00;101452.16;4886465;29;20128;-81
2023/12/20 06:46:41;;;;;;;20.35;5.68;;;;;;;5.18;100.00;101458.28;4906612;29;20338;-80
2023/12/20 06:49:07;;;;;;;25.13;5.65;;;;;;;5.18;100.00;101453.84;4888521;29;20114;-80
2023/12/20 06:51:32;;;;;;;23.05;5.55;;;;;;;5.18;100.00;101448.53;4906113;29;20479;-80
2023/12/20 06:53:57;;;;;;;19.25;5.97;;;;;;;5.21;100.00;101450.16;4905721;29;20056;-80
2023/12/20 06:56:23;;;;;;;28.13;6.28;;;;;;;5.22;100.00;101450.09;4904186;29;20043;-80
2023/12/20 06:58:48;;;;;;;22.40;5.50;;;;;;;5.20;100.00;101449.31;4899345;29;20040;-81
2023/12/20 07:01:14;;;;;;;24.90;6.18;;;;;;;5.23;100.00;101449.19;4897205;29;20091;-80
2023/12/20 07:03:40;;;;;;;29.27;6.10;;;;;;;5.23;100.00;101451.84;4901267;29;20036;-80
2023/12/20 07:06:06;;;;;;;19.48;5.10;;;;;;;5.21;100.00;101450.16;4917806;29;20162;-81
2023/12/20 07:08:31;;;;;;;26.63;6.30;;;;;;;5.20;100.00;101445.78;4911283;29;20029;-79
2023/12/20 07:10:57;;;;;;;22.95;6.75;;;;;;;5.20;100.00;101453.78;4911797;29;20047;-80
2023/12/20 07:13:22;;;;;;;25.10;6.38;;;;;;;5.19;100.00;101450.22;4925359;29;20019;-78
2023/12/20 07:15:48;;;;;;;19.35;5.32;;;;;;;5.21;100.00;101453.72;4925337;29;20096;-79
2023/12/20 07:18:13;;;;;;;20.35;5.90;;;;;;;5.22;100.00;101451.91;4930121;29;20060;-78
2023/12/20 07:20:39;;;;;;;24.17;5.50;;;;;;;5.25;100.00;101455.31;4906812;29;20040;-79
2023/12/20 07:23:04;;;;;;;24.45;6.82;;;;;;;5.25;100.00;101444.66;4904413;29;20096;-78
2023/12/20 07:25:32;;;;;;;23.80;6.88;;;;;;;5.27;100.00;101451.72;4920881;29;20088;-80
2023/12/20 07:27:57;;;;;;;21.27;4.97;;;;;;;5.29;100.00;101452.53;4900974;29;20074;-79
2023/12/20 07:30:23;;;;;;;23.27;5.60;;;;;;;5.29;100.00;101449.88;4906910;29;20108;-79
2023/12/20 07:32:48;;;;;;;19.73;4.90;;;;;;;5.31;100.00;101458.66;4909955;29;20061;-80
2023/12/20 07:35:15;;;;;;;18.15;5.32;;;;;;;5.30;100.00;101451.59;4926163;29;20025;-79
2023/12/20 07:37:40;;;;;;;23.45;5.85;;;;;;;5.32;100.00;101452.41;4908501;29;20050;-79
2023/12/20 07:40:06;;;;;;;22.42;4.97;;;;;;;5.32;100.00;101452.41;4908293;29;20029;-78
2023/12/20 07:42:32;;;;;;;19.08;5.30;;;;;;;5.33;100.00;101452.34;4909067;29;20032;-80
2023/12/20 07:44:58;;;;;;;26.92;6.00;;;;;;;5.35;100.00;101449.63;4923550;29;20033;-79
2023/12/20 07:47:25;;;;;;;21.00;5.03;;;;;;;5.36;100.00;101449.53;4917449;29;20033;-78
2023/12/20 07:49:51;;;;;;;23.58;5.97;;;;;;;5.38;100.00;101437.00;4917349;29;20045;-78
2023/12/20 07:52:17;;;;;;;18.52;5.28;;;;;;;5.38;100.00;101437.00;4920432;29;20049;-79
2023/12/20 07:54:43;;;;;;;21.10;5.30;;;;;;;5.41;100.00;101441.34;4907537;29;20056;-78
2023/12/20 07:57:08;;;;;;;22.25;5.53;;;;;;;5.43;100.00;101442.13;4917162;29;20092;-79
2023/12/20 07:59:33;;;;;;;19.08;5.10;;;;;;;5.43;100.00;101443.03;4923804;29;20048;-79
2023/12/20 08:01:58;;;;;;;26.92;5.80;;;;;;;5.47;100.00;101461.56;4919520;29;20051;-79
2023/12/20 08:04:24;;;;;;;19.00;4.85;;;;;;;5.48;100.00;101445.50;4913568;29;20040;-79
2023/12/20 08:06:50;;;;;;;21.45;4.95;;;;;;;5.49;100.00;101457.91;4918705;29;20039;-79
2023/12/20 08:09:15;;;;;;;28.15;5.80;;;;;;;5.50;100.00;101456.94;4902967;29;20045;-80
2023/12/20 08:11:45;;;;;;;24.92;4.93;;;;;;;5.56;100.00;101461.16;4919939;29;20036;-79
2023/12/20 08:14:10;;;;;;;20.38;5.20;;;;;;;5.55;100.00;101462.09;4921593;29;20039;-83
2023/12/20 08:16:36;;;;;;;19.38;4.78;;;;;;;5.56;100.00;101454.03;4900792;29;20080;-83
2023/12/20 08:19:01;;;;;;;21.63;5.75;;;;;;;5.56;100.00;101454.03;4875278;29;20132;-82
2023/12/20 08:21:27;;;;;;;23.23;5.78;;;;;;;5.58;100.00;101452.16;4896291;29;20165;-82
2023/12/20 08:23:52;;;;;;;22.35;5.50;;;;;;;5.59;100.00;101464.56;4880876;29;20043;-79
2023/12/20 08:26:22;;;;;;;23.27;5.80;;;;;;;5.60;100.00;101463.63;4914962;29;20092;-79
2023/12/20 08:28:48;;;;;;;23.98;5.72;;;;;;;5.64;100.00;101466.16;4897474;29;20037;-79
2023/12/20 08:31:18;;;;;;;19.38;5.55;;;;;;;5.66;100.00;101464.31;4915771;29;20112;-79
2023/12/20 08:33:45;;;;;;;25.20;5.68;;;;;;;5.68;100.00;101467.75;4899714;29;20044;-79
2023/12/20 08:36:10;;;;;;;23.95;5.68;;;;;;;5.69;100.00;101472.19;4888038;29;20545;-83
2023/12/20 08:38:36;;;;;;;21.52;5.82;;;;;;;5.71;100.00;101465.84;4897284;29;20040;-83
2023/12/20 08:41:02;;;;;;;23.40;4.97;;;;;;;5.74;100.00;101479.06;4882109;29;20024;-83
2023/12/20 08:43:28;;;;;;;24.83;5.47;;;;;;;5.77;100.00;101467.38;4897087;29;20119;-83
2023/12/20 08:45:54;;;;;;;20.02;4.60;;;;;;;5.78;100.00;101466.44;4906323;29;20178;-82
2023/12/20 08:48:19;;;;;;;22.65;5.53;;;;;;;5.79;100.00;101454.84;4889743;29;20032;-83
2023/12/20 08:50:44;;;;;;;20.13;5.32;;;;;;;5.81;100.00;101446.78;4901180;29;20124;-83
2023/12/20 08:53:10;;;;;;;25.88;5.30;;;;;;;5.83;100.00;101451.13;4882543;29;20024;-83
2023/12/20 08:55:35;;;;;;;21.48;5.97;;;;;;;5.84;100.00;101446.63;4905224;29;20152;-83
2023/12/20 08:58:00;;;;;;;20.50;5.85;;;;;;;5.84;100.00;101443.97;4878284;29;20047;-82
2023/12/20 09:00:27;;;;;;;21.95;5.78;;;;;;;5.84;100.00;101447.53;4880759;29;20032;-82
2023/12/20 09:02:53;;;;;;;16.08;4.05;;;;;;;5.85;100.00;101438.56;4902746;29;20021;-83
2023/12/20 09:05:19;;;;;;;17.35;4.47;;;;;;;5.87;100.00;101438.50;4902321;29;20020;-83
2023/12/20 09:07:44;;;;;;;23.75;5.32;;;;;;;5.90;100.00;101436.56;4900767;29;20032;-83
2023/12/20 09:10:09;;;;;;;20.92;5.82;;;;;;;5.91;100.00;101448.09;4902126;29;20111;-83
2023/12/20 09:12:35;;;;;;;22.73;5.78;;;;;;;5.92;100.00;101453.38;4883832;29;20024;-84
2023/12/20 09:15:02;;;;;;;24.88;5.90;;;;;;;5.93;100.00;101451.59;4880782;29;20448;-82
2023/12/20 09:17:27;;;;;;;21.48;5.65;;;;;;;5.95;100.00;101450.56;4894993;29;20048;-83
2023/12/20 09:19:53;;;;;;;21.25;5.30;;;;;;;5.93;100.00;101441.75;4898046;29;20039;-82
2023/12/20 09:22:19;;;;;;;23.42;5.85;;;;;;;5.94;100.00;101446.19;4902903;29;20459;-82
2023/12/20 09:24:44;;;;;;;23.25;6.53;;;;;;;5.94;100.00;101446.19;4879716;29;20028;-83
2023/12/20 09:27:10;;;;;;;19.58;5.13;;;;;;;5.98;100.00;101454.06;4879672;29;20036;-83
2023/12/20 09:29:35;;;;;;;24.25;5.47;;;;;;;5.99;100.00;101453.13;4881375;29;20465;-82
2023/12/20 09:32:00;;;;;;;17.10;4.72;;;;;;;6.00;100.00;101457.53;4900829;29;20488;-82
2023/12/20 09:34:29;;;;;;;18.02;4.72;;;;;;;6.00;100.00;101442.38;4878972;29;20098;-83
2023/12/20 09:36:54;;;;;;;21.38;4.50;;;;;;;6.02;100.00;101450.31;4882401;29;20024;-83
2023/12/20 09:39:21;;;;;;;18.17;5.22;;;;;;;6.04;100.00;101433.31;4889492;29;20060;-83
2023/12/20 09:42:05;;;;;;;21.30;5.78;;;;;;;6.06;100.00;101425.22;4877404;29;20108;-83
2023/12/20 09:44:32;;;;;;;21.75;5.20;;;;;;;6.05;100.00;101434.19;4881729;29;20087;-79
2023/12/20 09:46:58;;;;;;;25.30;5.00;;;;;;;6.06;100.00;101431.44;4918638;29;20024;-79
2023/12/20 09:49:27;;;;;;;22.85;5.47;;;;;;;6.06;100.00;101435.91;4897861;29;20039;-78
2023/12/20 09:51:55;;;;;;;20.27;4.82;;;;;;;6.08;100.00;101436.72;4899155;29;20040;-79
2023/12/20 09:54:21;;;;;;;22.40;5.63;;;;;;;6.10;100.00;101437.50;4910703;29;20103;-78
2023/12/20 09:56:47;;;;;;;25.42;5.40;;;;;;;6.11;100.00;101447.25;4892601;29;20031;-79
2023/12/20 09:59:13;;;;;;;17.30;4.78;;;;;;;6.12;100.00;101441.00;4909444;29;20092;-78
2023/12/20 10:01:39;;;;;;;15.50;3.78;;;;;;;6.15;100.00;101434.63;4888774;29;20032;-79
2023/12/20 10:04:12;;;;;;;22.15;5.47;;;;;;;6.16;100.00;101437.22;4895465;29;20100;-78
2023/12/20 10:06:43;;;;;;;17.48;4.47;;;;;;;6.20;100.00;101435.28;4901158;29;20569;-82
2023/12/20 10:09:09;;;;;;;17.00;4.75;;;;;;;6.22;100.00;101449.41;4900847;29;20599;-83
2023/12/20 10:11:37;;;;;;;22.45;4.55;;;;;;;6.23;100.00;101452.03;4880948;29;20024;-83
2023/12/20 10:14:03;;;;;;;23.55;4.60;;;;;;;6.27;100.00;101437.59;4879736;29;20560;-82
2023/12/20 10:16:29;;;;;;;16.95;4.32;;;;;;;6.29;100.00;101435.72;4893645;29;20287;-83
2023/12/20 10:18:55;;;;;;;24.88;5.15;;;;;;;6.32;100.00;101432.03;4898345;29;20044;-83
2023/12/20 10:21:22;;;;;;;22.40;5.13;;;;;;;6.35;100.00;101423.03;4895169;29;20032;-83
2023/12/20 10:23:49;;;;;;;20.35;4.60;;;;;;;6.38;100.00;101428.22;4879841;29;20369;-83
2023/12/20 10:26:22;;;;;;;18.30;4.80;;;;;;;6.39;100.00;101429.97;4905179;29;20489;-83
2023/12/20 10:28:53;;;;;;;26.02;5.20;;;;;;;6.41;100.00;101436.97;4878650;29;20492;-83
2023/12/20 10:31:28;;;;;;;17.38;4.63;;;;;;;6.43;100.00;101431.56;4900281;29;20179;-83
2023/12/20 10:33:56;;;;;;;22.35;5.10;;;;;;;6.44;100.00;101435.94;4895480;29;20448;-83
2023/12/20 10:36:23;;;;;;;24.45;5.60;;;;;;;6.44;100.00;101430.59;4887633;29;20025;-84
2023/12/20 10:38:52;;;;;;;24.20;5.70;;;;;;;6.45;100.00;101432.34;4898586;29;20128;-84
2023/12/20 10:41:29;;;;;;;13.00;4.32;;;;;;;6.46;100.00;101429.59;4880105;29;20218;-83
2023/12/20 10:44:03;;;;;;;21.45;5.25;;;;;;;6.49;100.00;101423.25;4873644;29;20383;-83
2023/12/20 10:46:29;;;;;;;21.92;4.97;;;;;;;6.51;100.00;101418.72;4880415;29;20111;-82
2023/12/20 10:48:56;;;;;;;22.48;5.07;;;;;;;6.51;100.00;101409.84;4870643;29;20033;-81
2023/12/20 10:51:22;;;;;;;20.77;4.65;;;;;;;6.53;100.00;101402.59;4898456;29;20063;-82
2023/12/20 10:53:51;;;;;;;22.70;5.30;;;;;;;6.55;100.00;101417.63;4880084;29;20515;-83
2023/12/20 10:56:18;;;;;;;30.25;6.43;;;;;;;6.55;100.00;101411.44;4903220;29;20024;-84
2023/12/20 10:58:44;;;;;;;18.77;4.70;;;;;;;6.54;100.00;101409.69;4901318;29;20036;-83
2023/12/20 11:01:15;;;;;;;21.58;4.72;;;;;;;6.56;100.00;101410.47;4895477;29;20654;-83
2023/12/20 11:03:47;;;;;;;25.65;5.53;;;;;;;6.57;100.00;101398.84;4898161;29;20056;-84
2023/12/20 11:06:24;;;;;;;17.80;4.68;;;;;;;6.57;100.00;101394.38;4915503;29;20035;-78
2023/12/20 11:08:58;;;;;;;19.42;4.60;;;;;;;6.57;100.00;101391.69;4915319;29;20100;-80
2023/12/20 11:11:37;;;;;;;28.05;6.68;;;;;;;6.57;100.00;101381.03;4917573;29;20032;-78